sensor_id;sensor_type;location;lat;lon;timestamp;pressure;altitude;pressure_sealevel;temperature;humidity
77778;BME280;66966;-34.746;138.604;2023-04-16T00:01:07;101407.27;;;16.53;34.97
77778;BME280;66966;-34.746;138.604;2023-04-16T00:03:32;101405.39;;;16.52;33.75
77778;BME280;66966;-34.746;138.604;2023-04-16T00:05:57;101404.72;;;16.05;34.25
77778;BME280;66966;-34.746;138.604;2023-04-16T00:08:23;101406.31;;;16.49;33.42
77778;BME280;66966;-34.746;138.604;2023-04-16T00:10:49;101410.38;;;15.65;33.01
77778;BME280;66966;-34.746;138.604;2023-04-16T00:13:15;101415.31;;;16.73;31.27
77778;BME280;66966;-34.746;138.604;2023-04-16T00:15:40;101420.61;;;17.10;30.84
77778;BME280;66966;-34.746;138.604;2023-04-16T00:18:05;101420.62;;;17.30;31.67
77778;BME280;66966;-34.746;138.604;2023-04-16T00:20:31;101417.70;;;17.01;32.43
77778;BME280;66966;-34.746;138.604;2023-04-16T00:22:56;101421.61;;;16.82;32.67
77778;BME280;66966;-34.746;138.604;2023-04-16T00:25:22;101422.40;;;16.78;32.80
77778;BME280;66966;-34.746;138.604;2023-04-16T00:27:47;101437.88;;;16.96;31.91
77778;BME280;66966;-34.746;138.604;2023-04-16T00:30:13;101447.19;;;17.00;32.43
77778;BME280;66966;-34.746;138.604;2023-04-16T00:32:38;101448.89;;;16.84;32.22
77778;BME280;66966;-34.746;138.604;2023-04-16T00:35:05;101446.13;;;16.45;31.98
77778;BME280;66966;-34.746;138.604;2023-04-16T00:37:31;101445.29;;;16.73;32.54
77778;BME280;66966;-34.746;138.604;2023-04-16T00:39:55;101448.08;;;16.72;32.11
77778;BME280;66966;-34.746;138.604;2023-04-16T00:42:21;101438.27;;;16.84;32.20
77778;BME280;66966;-34.746;138.604;2023-04-16T00:44:46;101447.40;;;16.87;31.90
77778;BME280;66966;-34.746;138.604;2023-04-16T00:47:12;101445.19;;;16.90;31.73
77778;BME280;66966;-34.746;138.604;2023-04-16T00:49:38;101448.85;;;16.89;31.36
77778;BME280;66966;-34.746;138.604;2023-04-16T00:52:03;101448.97;;;16.69;30.79
77778;BME280;66966;-34.746;138.604;2023-04-16T00:54:29;101455.63;;;17.23;30.54
77778;BME280;66966;-34.746;138.604;2023-04-16T00:56:54;101455.85;;;17.39;30.79
77778;BME280;66966;-34.746;138.604;2023-04-16T00:59:20;101454.69;;;17.45;30.65
77778;BME280;66966;-34.746;138.604;2023-04-16T01:01:45;101454.32;;;17.07;30.86
77778;BME280;66966;-34.746;138.604;2023-04-16T01:04:11;101450.64;;;17.62;31.03
77778;BME280;66966;-34.746;138.604;2023-04-16T01:06:36;101446.71;;;17.57;30.47
77778;BME280;66966;-34.746;138.604;2023-04-16T01:09:02;101450.88;;;17.61;30.32
77778;BME280;66966;-34.746;138.604;2023-04-16T01:11:27;101449.17;;;17.62;30.09
77778;BME280;66966;-34.746;138.604;2023-04-16T01:13:53;101449.35;;;17.59;29.21
77778;BME280;66966;-34.746;138.604;2023-04-16T01:16:18;101449.10;;;17.62;29.36
77778;BME280;66966;-34.746;138.604;2023-04-16T01:18:44;101454.69;;;18.06;30.03
77778;BME280;66966;-34.746;138.604;2023-04-16T01:21:09;101457.78;;;17.91;29.76
77778;BME280;66966;-34.746;138.604;2023-04-16T01:23:35;101456.90;;;18.09;29.48
77778;BME280;66966;-34.746;138.604;2023-04-16T01:26:00;101465.50;;;18.18;29.93
77778;BME280;66966;-34.746;138.604;2023-04-16T01:28:26;101462.76;;;18.29;28.77
77778;BME280;66966;-34.746;138.604;2023-04-16T01:30:51;101457.57;;;18.27;28.92
77778;BME280;66966;-34.746;138.604;2023-04-16T01:33:18;101468.53;;;18.43;28.84
77778;BME280;66966;-34.746;138.604;2023-04-16T01:35:42;101481.25;;;18.02;29.76
77778;BME280;66966;-34.746;138.604;2023-04-16T01:38:09;101475.39;;;17.94;30.62
77778;BME280;66966;-34.746;138.604;2023-04-16T01:40:33;101486.42;;;18.14;30.68
77778;BME280;66966;-34.746;138.604;2023-04-16T01:42:58;101490.01;;;18.11;30.45
77778;BME280;66966;-34.746;138.604;2023-04-16T01:45:24;101488.88;;;18.22;30.99
77778;BME280;66966;-34.746;138.604;2023-04-16T01:47:50;101496.90;;;18.38;30.67
77778;BME280;66966;-34.746;138.604;2023-04-16T01:50:16;101503.05;;;18.45;29.86
77778;BME280;66966;-34.746;138.604;2023-04-16T01:52:40;101502.74;;;18.53;29.87
77778;BME280;66966;-34.746;138.604;2023-04-16T01:55:06;101501.80;;;17.98;29.67
77778;BME280;66966;-34.746;138.604;2023-04-16T01:57:31;101503.21;;;17.96;28.38
77778;BME280;66966;-34.746;138.604;2023-04-16T01:59:57;101509.70;;;18.09;28.27
77778;BME280;66966;-34.746;138.604;2023-04-16T02:02:23;101512.78;;;18.37;27.38
77778;BME280;66966;-34.746;138.604;2023-04-16T02:04:48;101520.75;;;18.19;27.63
77778;BME280;66966;-34.746;138.604;2023-04-16T02:07:13;101514.36;;;18.11;28.00
77778;BME280;66966;-34.746;138.604;2023-04-16T02:09:40;101520.52;;;18.31;28.93
77778;BME280;66966;-34.746;138.604;2023-04-16T02:12:05;101527.53;;;18.38;27.46
77778;BME280;66966;-34.746;138.604;2023-04-16T02:14:30;101519.05;;;18.53;27.43
77778;BME280;66966;-34.746;138.604;2023-04-16T02:16:55;101525.70;;;18.15;27.87
77778;BME280;66966;-34.746;138.604;2023-04-16T02:19:21;101523.96;;;18.36;28.42
77778;BME280;66966;-34.746;138.604;2023-04-16T02:21:46;101520.99;;;18.16;28.17
77778;BME280;66966;-34.746;138.604;2023-04-16T02:24:12;101518.48;;;18.50;27.91
77778;BME280;66966;-34.746;138.604;2023-04-16T02:26:37;101527.95;;;18.78;27.83
77778;BME280;66966;-34.746;138.604;2023-04-16T02:29:03;101528.88;;;18.23;27.94
77778;BME280;66966;-34.746;138.604;2023-04-16T02:31:28;101527.92;;;18.49;27.86
77778;BME280;66966;-34.746;138.604;2023-04-16T02:33:53;101531.90;;;18.56;27.53
77778;BME280;66966;-34.746;138.604;2023-04-16T02:36:19;101536.56;;;18.59;28.02
77778;BME280;66966;-34.746;138.604;2023-04-16T02:38:45;101536.97;;;18.60;28.17
77778;BME280;66966;-34.746;138.604;2023-04-16T02:41:10;101539.98;;;18.74;28.44
77778;BME280;66966;-34.746;138.604;2023-04-16T02:43:35;101537.73;;;18.85;28.03
77778;BME280;66966;-34.746;138.604;2023-04-16T02:46:01;101542.53;;;18.44;28.54
77778;BME280;66966;-34.746;138.604;2023-04-16T02:48:26;101547.69;;;18.51;27.79
77778;BME280;66966;-34.746;138.604;2023-04-16T02:50:52;101542.50;;;18.94;27.81
77778;BME280;66966;-34.746;138.604;2023-04-16T02:53:17;101532.72;;;19.15;27.99
77778;BME280;66966;-34.746;138.604;2023-04-16T02:55:49;101535.71;;;19.18;28.13
77778;BME280;66966;-34.746;138.604;2023-04-16T02:58:08;101528.95;;;18.86;26.91
77778;BME280;66966;-34.746;138.604;2023-04-16T03:00:33;101531.70;;;19.15;26.85
77778;BME280;66966;-34.746;138.604;2023-04-16T03:02:59;101531.62;;;18.89;27.31
77778;BME280;66966;-34.746;138.604;2023-04-16T03:05:24;101527.05;;;19.01;27.26
77778;BME280;66966;-34.746;138.604;2023-04-16T03:07:50;101531.78;;;19.07;27.50
77778;BME280;66966;-34.746;138.604;2023-04-16T03:10:15;101536.69;;;19.33;27.36
77778;BME280;66966;-34.746;138.604;2023-04-16T03:12:41;101532.90;;;19.14;26.77
77778;BME280;66966;-34.746;138.604;2023-04-16T03:15:07;101534.08;;;19.37;26.39
77778;BME280;66966;-34.746;138.604;2023-04-16T03:17:31;101533.63;;;19.33;26.00
77778;BME280;66966;-34.746;138.604;2023-04-16T03:19:57;101529.30;;;18.99;26.52
77778;BME280;66966;-34.746;138.604;2023-04-16T03:22:22;101533.10;;;19.36;26.45
77778;BME280;66966;-34.746;138.604;2023-04-16T03:24:48;101526.91;;;19.28;26.98
77778;BME280;66966;-34.746;138.604;2023-04-16T03:27:14;101522.18;;;19.23;26.37
77778;BME280;66966;-34.746;138.604;2023-04-16T03:29:39;101523.89;;;19.73;25.93
77778;BME280;66966;-34.746;138.604;2023-04-16T03:32:04;101519.60;;;19.73;25.04
77778;BME280;66966;-34.746;138.604;2023-04-16T03:34:30;101521.21;;;19.76;24.88
77778;BME280;66966;-34.746;138.604;2023-04-16T03:36:55;101520.84;;;19.37;25.64
77778;BME280;66966;-34.746;138.604;2023-04-16T03:39:21;101515.29;;;19.34;25.59
77778;BME280;66966;-34.746;138.604;2023-04-16T03:41:46;101519.65;;;19.43;24.65
77778;BME280;66966;-34.746;138.604;2023-04-16T03:44:11;101513.39;;;19.44;25.30
77778;BME280;66966;-34.746;138.604;2023-04-16T03:46:37;101508.36;;;19.54;25.45
77778;BME280;66966;-34.746;138.604;2023-04-16T03:49:02;101516.60;;;19.29;25.10
77778;BME280;66966;-34.746;138.604;2023-04-16T03:51:28;101510.33;;;19.26;25.69
77778;BME280;66966;-34.746;138.604;2023-04-16T03:53:53;101519.89;;;19.36;25.64
77778;BME280;66966;-34.746;138.604;2023-04-16T03:56:18;101524.32;;;20.17;25.69
77778;BME280;66966;-34.746;138.604;2023-04-16T03:58:44;101516.64;;;20.01;25.51
77778;BME280;66966;-34.746;138.604;2023-04-16T04:01:09;101516.60;;;20.19;25.99
77778;BME280;66966;-34.746;138.604;2023-04-16T04:03:35;101515.71;;;20.50;25.81
77778;BME280;66966;-34.746;138.604;2023-04-16T04:06:00;101515.36;;;20.34;25.00
77778;BME280;66966;-34.746;138.604;2023-04-16T04:08:25;101513.47;;;20.12;25.56
77778;BME280;66966;-34.746;138.604;2023-04-16T04:10:51;101504.86;;;20.25;25.33
77778;BME280;66966;-34.746;138.604;2023-04-16T04:13:16;101498.52;;;20.09;24.76
77778;BME280;66966;-34.746;138.604;2023-04-16T04:15:43;101500.38;;;20.47;24.76
77778;BME280;66966;-34.746;138.604;2023-04-16T04:18:07;101500.30;;;20.29;25.07
77778;BME280;66966;-34.746;138.604;2023-04-16T04:20:33;101505.39;;;20.57;23.83
77778;BME280;66966;-34.746;138.604;2023-04-16T04:22:58;101515.56;;;20.28;22.93
77778;BME280;66966;-34.746;138.604;2023-04-16T04:25:24;101517.30;;;20.42;23.35
77778;BME280;66966;-34.746;138.604;2023-04-16T04:27:49;101514.27;;;20.08;24.01
77778;BME280;66966;-34.746;138.604;2023-04-16T04:30:14;101520.52;;;20.06;24.70
77778;BME280;66966;-34.746;138.604;2023-04-16T04:32:40;101516.24;;;20.26;25.17
77778;BME280;66966;-34.746;138.604;2023-04-16T04:35:06;101520.76;;;20.80;24.77
77778;BME280;66966;-34.746;138.604;2023-04-16T04:37:30;101528.99;;;20.82;23.67
77778;BME280;66966;-34.746;138.604;2023-04-16T04:39:56;101522.36;;;20.51;23.92
77778;BME280;66966;-34.746;138.604;2023-04-16T04:42:21;101519.08;;;20.43;23.50
77778;BME280;66966;-34.746;138.604;2023-04-16T04:44:47;101528.58;;;20.43;23.84
77778;BME280;66966;-34.746;138.604;2023-04-16T04:47:12;101544.64;;;20.73;24.30
77778;BME280;66966;-34.746;138.604;2023-04-16T04:49:38;101545.66;;;20.47;24.11
77778;BME280;66966;-34.746;138.604;2023-04-16T04:52:03;101556.29;;;20.14;24.35
77778;BME280;66966;-34.746;138.604;2023-04-16T04:54:29;101550.43;;;20.47;24.97
77778;BME280;66966;-34.746;138.604;2023-04-16T04:56:54;101557.17;;;20.61;25.13
77778;BME280;66966;-34.746;138.604;2023-04-16T04:59:20;101566.60;;;20.53;24.60
77778;BME280;66966;-34.746;138.604;2023-04-16T05:01:45;101561.44;;;20.63;24.76
77778;BME280;66966;-34.746;138.604;2023-04-16T05:04:10;101561.48;;;20.86;24.95
77778;BME280;66966;-34.746;138.604;2023-04-16T05:06:35;101561.66;;;20.61;24.63
77778;BME280;66966;-34.746;138.604;2023-04-16T05:09:01;101559.99;;;20.48;24.55
77778;BME280;66966;-34.746;138.604;2023-04-16T05:11:26;101568.54;;;20.30;25.16
77778;BME280;66966;-34.746;138.604;2023-04-16T05:13:52;101569.95;;;20.59;24.77
77778;BME280;66966;-34.746;138.604;2023-04-16T05:16:17;101577.58;;;20.45;24.68
77778;BME280;66966;-34.746;138.604;2023-04-16T05:18:42;101578.83;;;20.34;24.99
77778;BME280;66966;-34.746;138.604;2023-04-16T05:21:08;101579.00;;;20.22;25.04
77778;BME280;66966;-34.746;138.604;2023-04-16T05:23:33;101576.76;;;20.22;25.39
77778;BME280;66966;-34.746;138.604;2023-04-16T05:25:59;101574.68;;;20.14;25.37
77778;BME280;66966;-34.746;138.604;2023-04-16T05:28:25;101579.86;;;20.41;25.54
77778;BME280;66966;-34.746;138.604;2023-04-16T05:30:50;101582.34;;;20.57;25.60
77778;BME280;66966;-34.746;138.604;2023-04-16T05:33:15;101584.00;;;20.47;25.90
77778;BME280;66966;-34.746;138.604;2023-04-16T05:35:40;101593.08;;;20.20;25.86
77778;BME280;66966;-34.746;138.604;2023-04-16T05:38:05;101601.32;;;20.18;25.98
77778;BME280;66966;-34.746;138.604;2023-04-16T05:40:31;101607.95;;;20.22;26.01
77778;BME280;66966;-34.746;138.604;2023-04-16T05:42:56;101602.69;;;20.04;25.74
77778;BME280;66966;-34.746;138.604;2023-04-16T05:45:22;101599.31;;;20.31;25.37
77778;BME280;66966;-34.746;138.604;2023-04-16T05:47:48;101596.12;;;20.43;25.46
77778;BME280;66966;-34.746;138.604;2023-04-16T05:50:13;101598.48;;;20.32;25.61
77778;BME280;66966;-34.746;138.604;2023-04-16T05:52:38;101599.40;;;20.40;26.21
77778;BME280;66966;-34.746;138.604;2023-04-16T05:55:03;101600.97;;;20.20;26.11
77778;BME280;66966;-34.746;138.604;2023-04-16T05:57:29;101596.28;;;20.60;25.52
77778;BME280;66966;-34.746;138.604;2023-04-16T05:59:56;101599.54;;;20.56;25.26
77778;BME280;66966;-34.746;138.604;2023-04-16T06:02:20;101603.82;;;20.70;25.21
77778;BME280;66966;-34.746;138.604;2023-04-16T06:04:45;101603.61;;;21.08;25.46
77778;BME280;66966;-34.746;138.604;2023-04-16T06:07:10;101604.01;;;21.10;25.52
77778;BME280;66966;-34.746;138.604;2023-04-16T06:09:36;101606.27;;;21.08;25.42
77778;BME280;66966;-34.746;138.604;2023-04-16T06:12:01;101608.00;;;21.03;25.65
77778;BME280;66966;-34.746;138.604;2023-04-16T06:14:26;101609.36;;;21.05;25.94
77778;BME280;66966;-34.746;138.604;2023-04-16T06:16:52;101615.59;;;20.69;26.18
77778;BME280;66966;-34.746;138.604;2023-04-16T06:19:17;101620.47;;;20.39;26.32
77778;BME280;66966;-34.746;138.604;2023-04-16T06:21:43;101626.11;;;20.71;26.66
77778;BME280;66966;-34.746;138.604;2023-04-16T06:24:09;101629.89;;;20.39;26.75
77778;BME280;66966;-34.746;138.604;2023-04-16T06:26:33;101630.34;;;20.63;26.66
77778;BME280;66966;-34.746;138.604;2023-04-16T06:28:59;101632.02;;;20.11;26.83
77778;BME280;66966;-34.746;138.604;2023-04-16T06:31:24;101629.81;;;20.04;27.06
77778;BME280;66966;-34.746;138.604;2023-04-16T06:33:50;101631.81;;;20.07;27.62
77778;BME280;66966;-34.746;138.604;2023-04-16T06:36:16;101630.61;;;20.27;27.64
77778;BME280;66966;-34.746;138.604;2023-04-16T06:38:41;101631.71;;;20.43;27.42
77778;BME280;66966;-34.746;138.604;2023-04-16T06:41:06;101639.45;;;20.13;27.62
77778;BME280;66966;-34.746;138.604;2023-04-16T06:43:31;101646.05;;;20.25;26.89
77778;BME280;66966;-34.746;138.604;2023-04-16T06:45:57;101648.81;;;20.07;27.01
77778;BME280;66966;-34.746;138.604;2023-04-16T06:48:23;101651.38;;;20.29;27.30
77778;BME280;66966;-34.746;138.604;2023-04-16T06:50:48;101650.81;;;20.26;27.12
77778;BME280;66966;-34.746;138.604;2023-04-16T06:53:13;101656.44;;;20.38;27.32
77778;BME280;66966;-34.746;138.604;2023-04-16T06:55:38;101659.91;;;20.44;27.14
77778;BME280;66966;-34.746;138.604;2023-04-16T06:58:04;101659.36;;;20.67;26.98
77778;BME280;66966;-34.746;138.604;2023-04-16T07:00:29;101662.60;;;20.66;26.87
77778;BME280;66966;-34.746;138.604;2023-04-16T07:02:54;101663.54;;;20.68;26.94
77778;BME280;66966;-34.746;138.604;2023-04-16T07:05:20;101668.71;;;20.80;26.78
77778;BME280;66966;-34.746;138.604;2023-04-16T07:07:45;101672.90;;;21.02;26.84
77778;BME280;66966;-34.746;138.604;2023-04-16T07:10:11;101675.77;;;20.76;26.88
77778;BME280;66966;-34.746;138.604;2023-04-16T07:12:36;101680.71;;;21.01;27.00
77778;BME280;66966;-34.746;138.604;2023-04-16T07:15:01;101684.07;;;20.63;26.74
77778;BME280;66966;-34.746;138.604;2023-04-16T07:17:27;101687.56;;;20.62;27.07
77778;BME280;66966;-34.746;138.604;2023-04-16T07:19:52;101690.41;;;20.84;27.07
77778;BME280;66966;-34.746;138.604;2023-04-16T07:22:18;101691.05;;;20.53;27.15
77778;BME280;66966;-34.746;138.604;2023-04-16T07:24:43;101697.46;;;20.40;27.00
77778;BME280;66966;-34.746;138.604;2023-04-16T07:27:08;101694.07;;;20.36;27.05
77778;BME280;66966;-34.746;138.604;2023-04-16T07:29:34;101687.42;;;20.24;27.24
77778;BME280;66966;-34.746;138.604;2023-04-16T07:31:59;101687.73;;;20.08;27.44
77778;BME280;66966;-34.746;138.604;2023-04-16T07:34:25;101687.97;;;19.77;27.69
77778;BME280;66966;-34.746;138.604;2023-04-16T07:36:51;101692.49;;;20.05;27.86
77778;BME280;66966;-34.746;138.604;2023-04-16T07:39:15;101694.33;;;20.08;27.81
77778;BME280;66966;-34.746;138.604;2023-04-16T07:41:41;101698.60;;;19.88;27.91
77778;BME280;66966;-34.746;138.604;2023-04-16T07:44:06;101700.78;;;19.92;27.78
77778;BME280;66966;-34.746;138.604;2023-04-16T07:46:32;101705.50;;;19.85;27.70
77778;BME280;66966;-34.746;138.604;2023-04-16T07:48:58;101709.13;;;19.36;27.58
77778;BME280;66966;-34.746;138.604;2023-04-16T07:51:23;101708.45;;;19.45;27.83
77778;BME280;66966;-34.746;138.604;2023-04-16T07:53:48;101715.05;;;19.82;27.92
77778;BME280;66966;-34.746;138.604;2023-04-16T07:56:13;101715.31;;;19.59;28.10
77778;BME280;66966;-34.746;138.604;2023-04-16T07:58:39;101718.92;;;19.68;28.30
77778;BME280;66966;-34.746;138.604;2023-04-16T08:01:05;101720.54;;;19.35;28.27
77778;BME280;66966;-34.746;138.604;2023-04-16T08:03:30;101721.95;;;19.59;28.35
77778;BME280;66966;-34.746;138.604;2023-04-16T08:05:55;101724.82;;;19.27;28.53
77778;BME280;66966;-34.746;138.604;2023-04-16T08:08:21;101727.79;;;19.68;28.56
77778;BME280;66966;-34.746;138.604;2023-04-16T08:10:46;101726.95;;;19.61;28.88
77778;BME280;66966;-34.746;138.604;2023-04-16T08:13:12;101731.55;;;19.68;28.64
77778;BME280;66966;-34.746;138.604;2023-04-16T08:15:42;101732.77;;;19.05;28.71
77778;BME280;66966;-34.746;138.604;2023-04-16T08:18:03;101732.23;;;19.50;28.82
77778;BME280;66966;-34.746;138.604;2023-04-16T08:20:28;101739.27;;;19.49;28.76
77778;BME280;66966;-34.746;138.604;2023-04-16T08:22:54;101749.77;;;19.21;28.62
77778;BME280;66966;-34.746;138.604;2023-04-16T08:25:19;101752.60;;;19.42;28.80
77778;BME280;66966;-34.746;138.604;2023-04-16T08:27:45;101756.69;;;19.41;29.01
77778;BME280;66966;-34.746;138.604;2023-04-16T08:30:10;101759.11;;;18.35;28.73
77778;BME280;66966;-34.746;138.604;2023-04-16T08:32:35;101762.02;;;19.60;28.30
77778;BME280;66966;-34.746;138.604;2023-04-16T08:35:01;101766.71;;;19.32;28.68
77778;BME280;66966;-34.746;138.604;2023-04-16T08:37:26;101771.26;;;19.34;28.89
77778;BME280;66966;-34.746;138.604;2023-04-16T08:39:52;101773.17;;;19.19;28.98
77778;BME280;66966;-34.746;138.604;2023-04-16T08:42:30;101776.78;;;19.02;29.22
77778;BME280;66966;-34.746;138.604;2023-04-16T08:44:47;101781.06;;;19.18;29.24
77778;BME280;66966;-34.746;138.604;2023-04-16T08:47:09;101786.21;;;19.05;29.41
77778;BME280;66966;-34.746;138.604;2023-04-16T08:49:36;101796.19;;;18.99;29.52
77778;BME280;66966;-34.746;138.604;2023-04-16T08:51:59;101806.65;;;18.91;29.67
77778;BME280;66966;-34.746;138.604;2023-04-16T08:54:34;101812.14;;;19.37;29.75
77778;BME280;66966;-34.746;138.604;2023-04-16T08:56:51;101818.96;;;18.79;30.05
77778;BME280;66966;-34.746;138.604;2023-04-16T08:59:16;101823.49;;;18.51;30.03
77778;BME280;66966;-34.746;138.604;2023-04-16T09:01:41;101829.53;;;18.70;30.14
77778;BME280;66966;-34.746;138.604;2023-04-16T09:04:07;101834.12;;;18.65;30.23
77778;BME280;66966;-34.746;138.604;2023-04-16T09:06:33;101836.59;;;18.56;30.45
77778;BME280;66966;-34.746;138.604;2023-04-16T09:08:59;101844.03;;;18.50;30.56
77778;BME280;66966;-34.746;138.604;2023-04-16T09:11:23;101847.48;;;18.47;30.51
77778;BME280;66966;-34.746;138.604;2023-04-16T09:13:49;101847.99;;;18.46;30.52
77778;BME280;66966;-34.746;138.604;2023-04-16T09:16:14;101852.82;;;18.39;30.75
77778;BME280;66966;-34.746;138.604;2023-04-16T09:18:40;101855.68;;;18.37;30.71
77778;BME280;66966;-34.746;138.604;2023-04-16T09:21:06;101856.05;;;18.35;30.80
77778;BME280;66966;-34.746;138.604;2023-04-16T09:23:30;101858.58;;;18.19;31.36
77778;BME280;66966;-34.746;138.604;2023-04-16T09:25:58;101860.46;;;18.25;31.81
77778;BME280;66966;-34.746;138.604;2023-04-16T09:30:47;101867.39;;;18.31;32.06
77778;BME280;66966;-34.746;138.604;2023-04-16T09:33:15;101873.17;;;17.93;32.24
77778;BME280;66966;-34.746;138.604;2023-04-16T09:35:45;101873.54;;;17.76;32.52
77778;BME280;66966;-34.746;138.604;2023-04-16T09:38:04;101877.28;;;17.89;32.82
77778;BME280;66966;-34.746;138.604;2023-04-16T09:40:29;101883.60;;;17.78;32.91
77778;BME280;66966;-34.746;138.604;2023-04-16T09:42:57;101893.11;;;17.43;33.03
77778;BME280;66966;-34.746;138.604;2023-04-16T09:45:20;101901.94;;;17.79;33.31
77778;BME280;66966;-34.746;138.604;2023-04-16T09:47:46;101907.97;;;17.40;33.68
77778;BME280;66966;-34.746;138.604;2023-04-16T09:50:15;101913.43;;;17.29;33.92
77778;BME280;66966;-34.746;138.604;2023-04-16T09:52:37;101919.33;;;17.21;34.07
77778;BME280;66966;-34.746;138.604;2023-04-16T09:55:02;101926.32;;;17.11;34.44
77778;BME280;66966;-34.746;138.604;2023-04-16T09:57:29;101928.21;;;17.04;34.57
77778;BME280;66966;-34.746;138.604;2023-04-16T09:59:54;101930.22;;;16.97;34.65
77778;BME280;66966;-34.746;138.604;2023-04-16T10:02:19;101931.71;;;17.47;34.49
77778;BME280;66966;-34.746;138.604;2023-04-16T10:04:49;101939.42;;;16.93;34.66
77778;BME280;66966;-34.746;138.604;2023-04-16T10:07:10;101941.96;;;16.98;34.47
77778;BME280;66966;-34.746;138.604;2023-04-16T10:09:38;101945.65;;;17.21;34.59
77778;BME280;66966;-34.746;138.604;2023-04-16T10:12:01;101949.32;;;17.21;34.46
77778;BME280;66966;-34.746;138.604;2023-04-16T10:14:27;101951.99;;;16.95;34.67
77778;BME280;66966;-34.746;138.604;2023-04-16T10:16:53;101955.25;;;16.93;34.83
77778;BME280;66966;-34.746;138.604;2023-04-16T10:19:18;101956.64;;;16.84;34.90
77778;BME280;66966;-34.746;138.604;2023-04-16T10:21:43;101956.17;;;17.18;35.08
77778;BME280;66966;-34.746;138.604;2023-04-16T10:24:09;101954.46;;;17.03;35.19
77778;BME280;66966;-34.746;138.604;2023-04-16T10:26:35;101952.86;;;16.75;35.25
77778;BME280;66966;-34.746;138.604;2023-04-16T10:29:00;101957.94;;;16.75;35.32
77778;BME280;66966;-34.746;138.604;2023-04-16T10:31:25;101963.81;;;16.74;35.47
77778;BME280;66966;-34.746;138.604;2023-04-16T10:33:51;101964.50;;;16.62;35.67
77778;BME280;66966;-34.746;138.604;2023-04-16T10:36:22;101971.78;;;16.62;35.62
77778;BME280;66966;-34.746;138.604;2023-04-16T10:38:45;101975.62;;;16.24;35.75
77778;BME280;66966;-34.746;138.604;2023-04-16T10:41:07;101977.56;;;16.68;35.77
77778;BME280;66966;-34.746;138.604;2023-04-16T10:43:38;101978.76;;;16.56;36.07
77778;BME280;66966;-34.746;138.604;2023-04-16T10:48:25;101980.07;;;16.47;36.33
77778;BME280;66966;-34.746;138.604;2023-04-16T10:50:56;101979.95;;;16.16;36.31
77778;BME280;66966;-34.746;138.604;2023-04-16T10:53:19;101980.97;;;16.38;35.99
77778;BME280;66966;-34.746;138.604;2023-04-16T10:55:40;101977.78;;;16.28;36.24
77778;BME280;66966;-34.746;138.604;2023-04-16T11:00:32;101983.62;;;16.08;36.25
77778;BME280;66966;-34.746;138.604;2023-04-16T11:02:57;101987.13;;;15.96;36.36
77778;BME280;66966;-34.746;138.604;2023-04-16T11:05:23;101984.84;;;16.32;36.57
77778;BME280;66966;-34.746;138.604;2023-04-16T11:07:49;101991.20;;;15.98;36.73
77778;BME280;66966;-34.746;138.604;2023-04-16T11:10:15;101990.08;;;15.90;36.88
77778;BME280;66966;-34.746;138.604;2023-04-16T11:12:41;101996.33;;;15.62;37.05
77778;BME280;66966;-34.746;138.604;2023-04-16T11:15:08;101999.38;;;15.53;37.30
77778;BME280;66966;-34.746;138.604;2023-04-16T11:17:35;101997.05;;;15.96;37.34
77778;BME280;66966;-34.746;138.604;2023-04-16T11:19:57;102004.74;;;15.66;37.46
77778;BME280;66966;-34.746;138.604;2023-04-16T11:22:23;102000.31;;;15.66;37.46
77778;BME280;66966;-34.746;138.604;2023-04-16T11:24:54;101999.23;;;15.85;37.52
77778;BME280;66966;-34.746;138.604;2023-04-16T11:27:14;102000.10;;;15.59;37.60
77778;BME280;66966;-34.746;138.604;2023-04-16T11:29:40;101998.39;;;15.33;37.52
77778;BME280;66966;-34.746;138.604;2023-04-16T11:32:05;102003.12;;;15.58;37.48
77778;BME280;66966;-34.746;138.604;2023-04-16T11:34:32;102007.77;;;15.76;37.68
77778;BME280;66966;-34.746;138.604;2023-04-16T11:36:57;102011.06;;;15.51;37.65
77778;BME280;66966;-34.746;138.604;2023-04-16T11:39:23;102011.07;;;15.67;37.77
77778;BME280;66966;-34.746;138.604;2023-04-16T11:41:49;102017.10;;;15.61;37.85
77778;BME280;66966;-34.746;138.604;2023-04-16T11:44:19;102021.40;;;15.32;37.89
77778;BME280;66966;-34.746;138.604;2023-04-16T11:46:40;102027.15;;;15.32;37.87
77778;BME280;66966;-34.746;138.604;2023-04-16T11:49:05;102033.17;;;15.51;38.16
77778;BME280;66966;-34.746;138.604;2023-04-16T11:51:30;102039.66;;;15.46;37.92
77778;BME280;66966;-34.746;138.604;2023-04-16T11:53:56;102040.67;;;15.17;38.17
77778;BME280;66966;-34.746;138.604;2023-04-16T11:56:28;102039.97;;;15.34;38.07
77778;BME280;66966;-34.746;138.604;2023-04-16T12:01:19;102044.14;;;15.28;38.27
77778;BME280;66966;-34.746;138.604;2023-04-16T12:03:40;102048.65;;;14.92;38.42
77778;BME280;66966;-34.746;138.604;2023-04-16T12:06:08;102051.94;;;15.35;38.40
77778;BME280;66966;-34.746;138.604;2023-04-16T12:08:30;102055.39;;;15.09;38.47
77778;BME280;66966;-34.746;138.604;2023-04-16T12:10:56;102059.80;;;14.55;38.66
77778;BME280;66966;-34.746;138.604;2023-04-16T12:13:21;102060.38;;;14.76;38.77
77778;BME280;66966;-34.746;138.604;2023-04-16T12:15:48;102060.67;;;14.96;38.79
77778;BME280;66966;-34.746;138.604;2023-04-16T12:18:12;102061.29;;;14.93;38.82
77778;BME280;66966;-34.746;138.604;2023-04-16T12:20:40;102062.01;;;14.93;38.81